sensor_id;sensor_type;location;lat;lon;timestamp;pressure;altitude;pressure_sealevel;temperature;humidity
30618;BME280;17384;51.214;9.202;2023-04-21T00:01:12;98481.94;;;8.76;80.16
30618;BME280;17384;51.214;9.202;2023-04-21T00:03:39;98491.72;;;8.77;79.63
30618;BME280;17384;51.214;9.202;2023-04-21T00:06:05;98503.16;;;8.79;79.70
30618;BME280;17384;51.214;9.202;2023-04-21T00:08:31;98502.53;;;8.83;79.82
30618;BME280;17384;51.214;9.202;2023-04-21T00:10:57;98510.03;;;8.81;79.70
30618;BME280;17384;51.214;9.202;2023-04-21T00:13:23;98501.28;;;8.86;79.41
30618;BME280;17384;51.214;9.202;2023-04-21T00:15:48;98494.41;;;8.90;79.09
30618;BME280;17384;51.214;9.202;2023-04-21T00:18:14;98497.34;;;8.75;79.72
30618;BME280;17384;51.214;9.202;2023-04-21T00:20:40;98495.09;;;8.66;80.13
30618;BME280;17384;51.214;9.202;2023-04-21T00:23:07;98496.97;;;8.59;80.73
30618;BME280;17384;51.214;9.202;2023-04-21T00:25:35;98494.94;;;8.47;81.31
30618;BME280;17384;51.214;9.202;2023-04-21T00:28:00;98507.59;;;8.40;81.71
30618;BME280;17384;51.214;9.202;2023-04-21T00:30:26;98496.75;;;8.54;81.06
30618;BME280;17384;51.214;9.202;2023-04-21T00:32:51;98490.34;;;8.41;81.51
30618;BME280;17384;51.214;9.202;2023-04-21T00:35:17;98499.88;;;8.31;82.07
30618;BME280;17384;51.214;9.202;2023-04-21T00:37:42;98497.84;;;8.46;81.46
30618;BME280;17384;51.214;9.202;2023-04-21T00:40:08;98488.06;;;8.38;81.81
30618;BME280;17384;51.214;9.202;2023-04-21T00:42:34;98491.38;;;8.47;81.69
30618;BME280;17384;51.214;9.202;2023-04-21T00:44:59;98502.19;;;8.34;82.06
30618;BME280;17384;51.214;9.202;2023-04-21T00:47:25;98507.59;;;8.40;81.90
30618;BME280;17384;51.214;9.202;2023-04-21T00:49:51;98502.63;;;8.37;82.21
30618;BME280;17384;51.214;9.202;2023-04-21T00:52:17;98503.44;;;8.38;81.90
30618;BME280;17384;51.214;9.202;2023-04-21T00:54:43;98509.69;;;8.38;81.70
30618;BME280;17384;51.214;9.202;2023-04-21T00:57:09;98514.47;;;8.36;82.36
30618;BME280;17384;51.214;9.202;2023-04-21T00:59:35;98518.84;;;8.37;82.33
30618;BME280;17384;51.214;9.202;2023-04-21T01:02:01;98517.78;;;8.38;82.26
30618;BME280;17384;51.214;9.202;2023-04-21T01:04:27;98521.75;;;8.42;82.10
30618;BME280;17384;51.214;9.202;2023-04-21T01:06:53;98519.47;;;8.39;82.24
30618;BME280;17384;51.214;9.202;2023-04-21T01:09:19;98513.44;;;8.44;81.82
30618;BME280;17384;51.214;9.202;2023-04-21T01:12:09;98517.16;;;8.49;81.70
30618;BME280;17384;51.214;9.202;2023-04-21T01:14:35;98518.00;;;8.43;81.85
30618;BME280;17384;51.214;9.202;2023-04-21T01:17:01;98505.28;;;8.51;81.41
30618;BME280;17384;51.214;9.202;2023-04-21T01:19:34;98515.47;;;8.55;81.28
30618;BME280;17384;51.214;9.202;2023-04-21T01:22:01;98513.41;;;8.57;81.29
30618;BME280;17384;51.214;9.202;2023-04-21T01:24:53;98512.59;;;8.43;81.67
30618;BME280;17384;51.214;9.202;2023-04-21T01:27:19;98510.91;;;8.49;81.48
30618;BME280;17384;51.214;9.202;2023-04-21T01:29:48;98525.06;;;8.44;81.71
30618;BME280;17384;51.214;9.202;2023-04-21T01:32:21;98513.38;;;8.31;82.34
30618;BME280;17384;51.214;9.202;2023-04-21T01:34:47;98512.59;;;8.37;82.11
30618;BME280;17384;51.214;9.202;2023-04-21T01:37:18;98518.41;;;8.40;81.68
30618;BME280;17384;51.214;9.202;2023-04-21T01:39:47;98525.06;;;8.44;81.61
30618;BME280;17384;51.214;9.202;2023-04-21T01:42:16;98526.31;;;8.42;81.31
30618;BME280;17384;51.214;9.202;2023-04-21T01:44:42;98517.78;;;8.38;81.50
30618;BME280;17384;51.214;9.202;2023-04-21T01:47:08;98523.41;;;8.43;81.48
30618;BME280;17384;51.214;9.202;2023-04-21T01:49:33;98513.44;;;8.44;81.16
30618;BME280;17384;51.214;9.202;2023-04-21T01:51:59;98528.41;;;8.40;81.26
30618;BME280;17384;51.214;9.202;2023-04-21T01:54:24;98534.00;;;8.38;81.27
30618;BME280;17384;51.214;9.202;2023-04-21T01:56:50;98525.50;;;8.41;81.17
30618;BME280;17384;51.214;9.202;2023-04-21T01:59:15;98520.91;;;8.42;81.25
30618;BME280;17384;51.214;9.202;2023-04-21T02:01:41;98525.91;;;8.45;81.11
30618;BME280;17384;51.214;9.202;2023-04-21T02:04:07;98529.66;;;8.44;81.22
30618;BME280;17384;51.214;9.202;2023-04-21T02:06:32;98533.34;;;8.30;81.51
30618;BME280;17384;51.214;9.202;2023-04-21T02:08:58;98522.34;;;8.18;82.18
30618;BME280;17384;51.214;9.202;2023-04-21T02:11:24;98528.19;;;8.35;81.02
30618;BME280;17384;51.214;9.202;2023-04-21T02:13:54;98532.97;;;8.33;81.19
30618;BME280;17384;51.214;9.202;2023-04-21T02:16:20;98525.03;;;8.18;81.99
30618;BME280;17384;51.214;9.202;2023-04-21T02:18:46;98530.44;;;8.31;81.38
30618;BME280;17384;51.214;9.202;2023-04-21T02:21:12;98530.00;;;8.28;81.72
30618;BME280;17384;51.214;9.202;2023-04-21T02:23:38;98523.56;;;8.29;81.58
30618;BME280;17384;51.214;9.202;2023-04-21T02:26:03;98522.13;;;8.26;81.54
30618;BME280;17384;51.214;9.202;2023-04-21T02:28:29;98527.31;;;8.21;81.62
30618;BME280;17384;51.214;9.202;2023-04-21T02:30:55;98520.88;;;8.22;81.36
30618;BME280;17384;51.214;9.202;2023-04-21T02:33:21;98517.94;;;8.24;81.71
30618;BME280;17384;51.214;9.202;2023-04-21T02:35:46;98520.88;;;8.29;81.57
30618;BME280;17384;51.214;9.202;2023-04-21T02:38:12;98514.66;;;8.15;81.65
30618;BME280;17384;51.214;9.202;2023-04-21T02:40:37;98520.88;;;8.09;82.09
30618;BME280;17384;51.214;9.202;2023-04-21T02:43:03;98527.94;;;8.23;81.88
30618;BME280;17384;51.214;9.202;2023-04-21T02:45:28;98508.81;;;8.05;82.01
30618;BME280;17384;51.214;9.202;2023-04-21T02:47:53;98505.91;;;8.06;82.09
30618;BME280;17384;51.214;9.202;2023-04-21T02:50:19;98512.97;;;8.07;81.82
30618;BME280;17384;51.214;9.202;2023-04-21T02:52:44;98506.72;;;8.07;82.05
30618;BME280;17384;51.214;9.202;2023-04-21T02:55:10;98518.78;;;8.11;81.96
30618;BME280;17384;51.214;9.202;2023-04-21T02:57:35;98523.38;;;8.17;81.83
30618;BME280;17384;51.214;9.202;2023-04-21T03:00:01;98522.13;;;8.20;81.85
30618;BME280;17384;51.214;9.202;2023-04-21T03:02:26;98523.38;;;8.17;81.59
30618;BME280;17384;51.214;9.202;2023-04-21T03:04:52;98508.19;;;8.23;81.34
30618;BME280;17384;51.214;9.202;2023-04-21T03:07:18;98512.56;;;8.17;81.56
30618;BME280;17384;51.214;9.202;2023-04-21T03:09:43;98519.84;;;8.17;81.52
30618;BME280;17384;51.214;9.202;2023-04-21T03:12:09;98514.03;;;8.13;81.39
30618;BME280;17384;51.214;9.202;2023-04-21T03:14:34;98511.94;;;8.08;82.04
30618;BME280;17384;51.214;9.202;2023-04-21T03:17:00;98512.16;;;8.20;81.43
30618;BME280;17384;51.214;9.202;2023-04-21T03:19:25;98520.47;;;8.12;81.49
30618;BME280;17384;51.214;9.202;2023-04-21T03:21:51;98511.50;;;8.25;81.29
30618;BME280;17384;51.214;9.202;2023-04-21T03:24:16;98512.56;;;8.30;80.60
30618;BME280;17384;51.214;9.202;2023-04-21T03:26:41;98525.44;;;8.28;80.88
30618;BME280;17384;51.214;9.202;2023-04-21T03:29:07;98500.91;;;8.23;81.12
30618;BME280;17384;51.214;9.202;2023-04-21T03:31:32;98516.50;;;8.28;80.98
30618;BME280;17384;51.214;9.202;2023-04-21T03:33:58;98506.94;;;8.25;80.99
30618;BME280;17384;51.214;9.202;2023-04-21T03:36:23;98510.47;;;8.26;81.07
30618;BME280;17384;51.214;9.202;2023-04-21T03:38:49;98510.69;;;8.24;80.91
30618;BME280;17384;51.214;9.202;2023-04-21T03:41:14;98513.81;;;8.08;81.63
30618;BME280;17384;51.214;9.202;2023-04-21T03:43:40;98511.72;;;8.10;81.50
30618;BME280;17384;51.214;9.202;2023-04-21T03:46:05;98493.44;;;8.05;81.68
30618;BME280;17384;51.214;9.202;2023-04-21T03:48:30;98505.09;;;8.19;81.08
30618;BME280;17384;51.214;9.202;2023-04-21T03:50:56;98502.38;;;8.26;80.58
30618;BME280;17384;51.214;9.202;2023-04-21T03:53:21;98512.56;;;8.30;80.49
30618;BME280;17384;51.214;9.202;2023-04-21T03:55:49;98512.19;;;8.33;80.10
30618;BME280;17384;51.214;9.202;2023-04-21T03:58:15;98509.22;;;8.28;80.10
30618;BME280;17384;51.214;9.202;2023-04-21T04:00:41;98512.56;;;8.30;80.15
30618;BME280;17384;51.214;9.202;2023-04-21T04:03:06;98498.81;;;8.25;80.34
30618;BME280;17384;51.214;9.202;2023-04-21T04:05:34;98513.38;;;8.31;80.22
30618;BME280;17384;51.214;9.202;2023-04-21T04:07:59;98506.53;;;8.28;80.36
30618;BME280;17384;51.214;9.202;2023-04-21T04:10:24;98506.94;;;8.25;80.44
30618;BME280;17384;51.214;9.202;2023-04-21T04:12:50;98515.25;;;8.30;80.58
30618;BME280;17384;51.214;9.202;2023-04-21T04:15:15;98506.97;;;8.38;80.06
30618;BME280;17384;51.214;9.202;2023-04-21T04:17:41;98507.41;;;8.35;80.14
30618;BME280;17384;51.214;9.202;2023-04-21T04:20:07;98508.22;;;8.42;79.78
30618;BME280;17384;51.214;9.202;2023-04-21T04:22:33;98511.56;;;8.38;80.30
30618;BME280;17384;51.214;9.202;2023-04-21T04:24:59;98517.59;;;8.40;80.00
30618;BME280;17384;51.214;9.202;2023-04-21T04:27:28;98523.00;;;8.33;80.20
30618;BME280;17384;51.214;9.202;2023-04-21T04:29:54;98516.56;;;8.47;79.68
30618;BME280;17384;51.214;9.202;2023-04-21T04:32:19;98526.31;;;8.42;79.71
30618;BME280;17384;51.214;9.202;2023-04-21T04:34:45;98521.13;;;8.40;79.68
30618;BME280;17384;51.214;9.202;2023-04-21T04:37:11;98521.53;;;8.37;79.98
30618;BME280;17384;51.214;9.202;2023-04-21T04:39:37;98519.47;;;8.46;79.63
30618;BME280;17384;51.214;9.202;2023-04-21T04:42:06;98522.97;;;8.53;79.38
30618;BME280;17384;51.214;9.202;2023-04-21T04:44:33;98524.22;;;8.51;79.23
30618;BME280;17384;51.214;9.202;2023-04-21T04:46:58;98503.63;;;8.49;79.08
30618;BME280;17384;51.214;9.202;2023-04-21T04:49:24;98508.03;;;8.37;79.58
30618;BME280;17384;51.214;9.202;2023-04-21T04:51:50;98510.31;;;8.40;79.43
30618;BME280;17384;51.214;9.202;2023-04-21T04:54:15;98512.59;;;8.37;79.68
30618;BME280;17384;51.214;9.202;2023-04-21T04:56:41;98508.84;;;8.44;79.22
30618;BME280;17384;51.214;9.202;2023-04-21T04:59:06;98515.31;;;8.43;79.52
30618;BME280;17384;51.214;9.202;2023-04-21T05:01:32;98513.81;;;8.54;78.86
30618;BME280;17384;51.214;9.202;2023-04-21T05:03:58;98504.88;;;8.60;78.64
30618;BME280;17384;51.214;9.202;2023-04-21T05:06:23;98522.56;;;8.69;78.34
30618;BME280;17384;51.214;9.202;2023-04-21T05:08:48;98529.22;;;8.73;78.24
30618;BME280;17384;51.214;9.202;2023-04-21T05:11:14;98521.31;;;8.65;78.17
30618;BME280;17384;51.214;9.202;2023-04-21T05:13:39;98530.88;;;8.55;79.10
30618;BME280;17384;51.214;9.202;2023-04-21T05:16:05;98527.13;;;8.56;79.20
30618;BME280;17384;51.214;9.202;2023-04-21T05:18:31;98540.44;;;8.57;79.40
30618;BME280;17384;51.214;9.202;2023-04-21T05:20:56;98519.22;;;8.61;79.16
30618;BME280;17384;51.214;9.202;2023-04-21T05:23:22;98535.88;;;8.64;78.92
30618;BME280;17384;51.214;9.202;2023-04-21T05:25:48;98531.50;;;8.63;78.74
30618;BME280;17384;51.214;9.202;2023-04-21T05:28:13;98519.63;;;8.71;78.76
30618;BME280;17384;51.214;9.202;2023-04-21T05:30:40;98533.56;;;8.74;78.23
30618;BME280;17384;51.214;9.202;2023-04-21T05:33:05;98537.94;;;8.69;78.86
30618;BME280;17384;51.214;9.202;2023-04-21T05:35:31;98538.75;;;8.82;78.37
30618;BME280;17384;51.214;9.202;2023-04-21T05:37:57;98538.75;;;8.76;78.49
30618;BME280;17384;51.214;9.202;2023-04-21T05:40:22;98537.28;;;8.80;78.47
30618;BME280;17384;51.214;9.202;2023-04-21T05:42:47;98540.63;;;8.82;78.49
30618;BME280;17384;51.214;9.202;2023-04-21T05:45:13;98539.38;;;8.91;78.16
30618;BME280;17384;51.214;9.202;2023-04-21T05:47:38;98534.56;;;8.93;77.74
30618;BME280;17384;51.214;9.202;2023-04-21T05:50:05;98542.88;;;8.98;77.52
30618;BME280;17384;51.214;9.202;2023-04-21T05:52:31;98545.81;;;8.97;77.23
30618;BME280;17384;51.214;9.202;2023-04-21T05:54:57;98546.59;;;9.04;77.24
30618;BME280;17384;51.214;9.202;2023-04-21T05:57:23;98535.56;;;9.05;77.24
30618;BME280;17384;51.214;9.202;2023-04-21T05:59:49;98529.72;;;9.22;76.52
30618;BME280;17384;51.214;9.202;2023-04-21T06:02:14;98535.94;;;9.29;75.97
30618;BME280;17384;51.214;9.202;2023-04-21T06:04:40;98533.59;;;9.32;76.41
30618;BME280;17384;51.214;9.202;2023-04-21T06:07:06;98537.34;;;9.31;75.95
30618;BME280;17384;51.214;9.202;2023-04-21T06:09:33;98546.38;;;9.19;76.74
30618;BME280;17384;51.214;9.202;2023-04-21T06:11:59;98556.38;;;9.18;77.32
30618;BME280;17384;51.214;9.202;2023-04-21T06:14:25;98539.47;;;9.29;76.53
30618;BME280;17384;51.214;9.202;2023-04-21T06:16:51;98536.81;;;9.61;76.19
30618;BME280;17384;51.214;9.202;2023-04-21T06:19:16;98544.88;;;10.12;74.10
30618;BME280;17384;51.214;9.202;2023-04-21T06:21:42;98549.06;;;10.08;73.24
30618;BME280;17384;51.214;9.202;2023-04-21T06:24:07;98533.25;;;10.05;73.40
30618;BME280;17384;51.214;9.202;2023-04-21T06:26:33;98537.81;;;10.11;72.92
30618;BME280;17384;51.214;9.202;2023-04-21T06:28:59;98524.41;;;10.16;72.89
30618;BME280;17384;51.214;9.202;2023-04-21T06:31:25;98552.41;;;10.10;72.95
30618;BME280;17384;51.214;9.202;2023-04-21T06:33:50;98549.06;;;10.08;73.15
30618;BME280;17384;51.214;9.202;2023-04-21T06:36:16;98535.44;;;10.14;72.72
30618;BME280;17384;51.214;9.202;2023-04-21T06:38:41;98542.50;;;10.29;72.74
30618;BME280;17384;51.214;9.202;2023-04-21T06:41:08;98536.91;;;10.17;72.99
30618;BME280;17384;51.214;9.202;2023-04-21T06:43:34;98531.97;;;10.64;71.64
30618;BME280;17384;51.214;9.202;2023-04-21T06:46:01;98543.25;;;11.04;70.16
30618;BME280;17384;51.214;9.202;2023-04-21T06:48:27;98539.16;;;11.19;69.14
30618;BME280;17384;51.214;9.202;2023-04-21T06:50:55;98533.75;;;11.49;68.60
30618;BME280;17384;51.214;9.202;2023-04-21T06:53:21;98541.59;;;11.76;68.63
30618;BME280;17384;51.214;9.202;2023-04-21T06:55:47;98541.66;;;11.69;66.92
30618;BME280;17384;51.214;9.202;2023-04-21T06:58:13;98535.00;;;11.83;66.85
30618;BME280;17384;51.214;9.202;2023-04-21T07:00:38;98537.81;;;11.77;66.57
30618;BME280;17384;51.214;9.202;2023-04-21T07:03:04;98543.63;;;11.80;67.08
30618;BME280;17384;51.214;9.202;2023-04-21T07:05:30;98548.50;;;12.20;65.73
30618;BME280;17384;51.214;9.202;2023-04-21T07:07:56;98546.53;;;12.39;64.41
30618;BME280;17384;51.214;9.202;2023-04-21T07:10:27;98545.34;;;12.23;64.27
30618;BME280;17384;51.214;9.202;2023-04-21T07:12:53;98533.94;;;12.79;64.68
30618;BME280;17384;51.214;9.202;2023-04-21T07:15:19;98538.31;;;12.69;63.79
30618;BME280;17384;51.214;9.202;2023-04-21T07:17:45;98535.34;;;12.70;64.15
30618;BME280;17384;51.214;9.202;2023-04-21T07:20:11;98539.53;;;12.31;64.64
30618;BME280;17384;51.214;9.202;2023-04-21T07:22:36;98534.38;;;12.00;66.76
30618;BME280;17384;51.214;9.202;2023-04-21T07:25:03;98537.31;;;12.28;66.14
30618;BME280;17384;51.214;9.202;2023-04-21T07:27:31;98528.34;;;12.63;66.35
30618;BME280;17384;51.214;9.202;2023-04-21T07:29:57;98536.41;;;12.69;64.83
30618;BME280;17384;51.214;9.202;2023-04-21T07:32:22;98531.44;;;12.66;63.07
30618;BME280;17384;51.214;9.202;2023-04-21T07:34:48;98525.28;;;12.59;63.84
30618;BME280;17384;51.214;9.202;2023-04-21T07:37:14;98522.53;;;12.36;64.37
30618;BME280;17384;51.214;9.202;2023-04-21T07:39:40;98520.78;;;12.53;64.28
30618;BME280;17384;51.214;9.202;2023-04-21T07:42:06;98518.13;;;12.23;65.14
30618;BME280;17384;51.214;9.202;2023-04-21T07:44:33;98519.84;;;12.06;65.83
30618;BME280;17384;51.214;9.202;2023-04-21T07:46:58;98514.88;;;11.73;66.42
30618;BME280;17384;51.214;9.202;2023-04-21T07:49:24;98521.06;;;11.62;67.17
30618;BME280;17384;51.214;9.202;2023-04-21T07:51:49;98517.81;;;11.71;67.58
30618;BME280;17384;51.214;9.202;2023-04-21T07:54:15;98516.31;;;11.75;68.12
30618;BME280;17384;51.214;9.202;2023-04-21T07:56:40;98519.31;;;11.85;67.15
30618;BME280;17384;51.214;9.202;2023-04-21T07:59:06;98503.19;;;12.02;66.73
30618;BME280;17384;51.214;9.202;2023-04-21T08:01:31;98510.00;;;12.46;65.32
30618;BME280;17384;51.214;9.202;2023-04-21T08:03:56;98512.16;;;12.56;65.01
30618;BME280;17384;51.214;9.202;2023-04-21T08:06:22;98507.78;;;12.67;64.38
30618;BME280;17384;51.214;9.202;2023-04-21T08:08:51;98515.59;;;12.98;63.88
30618;BME280;17384;51.214;9.202;2023-04-21T08:11:17;98521.34;;;13.13;62.88
30618;BME280;17384;51.214;9.202;2023-04-21T08:13:42;98513.03;;;13.55;62.97
30618;BME280;17384;51.214;9.202;2023-04-21T08:16:08;98527.44;;;13.96;61.36
30618;BME280;17384;51.214;9.202;2023-04-21T08:18:33;98518.00;;;14.32;58.74
30618;BME280;17384;51.214;9.202;2023-04-21T08:20:59;98517.47;;;14.46;58.05
30618;BME280;17384;51.214;9.202;2023-04-21T08:23:24;98518.53;;;14.96;56.57
30618;BME280;17384;51.214;9.202;2023-04-21T08:25:50;98513.47;;;15.04;55.65
30618;BME280;17384;51.214;9.202;2023-04-21T08:28:15;98512.81;;;14.97;57.09
30618;BME280;17384;51.214;9.202;2023-04-21T08:30:41;98514.06;;;15.94;56.29
30618;BME280;17384;51.214;9.202;2023-04-21T08:33:06;98505.97;;;16.31;53.83
30618;BME280;17384;51.214;9.202;2023-04-21T08:35:37;98507.09;;;16.08;53.89
30618;BME280;17384;51.214;9.202;2023-04-21T08:38:03;98510.84;;;15.31;55.79
30618;BME280;17384;51.214;9.202;2023-04-21T08:40:33;98493.59;;;15.52;55.16
30618;BME280;17384;51.214;9.202;2023-04-21T08:43:06;98488.34;;;16.21;55.31
30618;BME280;17384;51.214;9.202;2023-04-21T08:45:32;98502.84;;;16.22;53.97
30618;BME280;17384;51.214;9.202;2023-04-21T08:48:00;98500.44;;;16.25;52.66
30618;BME280;17384;51.214;9.202;2023-04-21T08:50:29;98502.03;;;16.53;53.30
30618;BME280;17384;51.214;9.202;2023-04-21T08:52:55;98498.09;;;17.08;52.91
30618;BME280;17384;51.214;9.202;2023-04-21T08:55:27;98497.09;;;16.50;52.84
30618;BME280;17384;51.214;9.202;2023-04-21T08:57:53;98493.78;;;16.48;52.59
30618;BME280;17384;51.214;9.202;2023-04-21T09:00:19;98505.75;;;15.83;54.19
30618;BME280;17384;51.214;9.202;2023-04-21T09:03:00;98493.69;;;16.65;52.20
30618;BME280;17384;51.214;9.202;2023-04-21T09:05:31;98479.75;;;16.72;52.55
30618;BME280;17384;51.214;9.202;2023-04-21T09:08:12;98488.97;;;16.29;52.59
30618;BME280;17384;51.214;9.202;2023-04-21T09:10:44;98485.41;;;16.01;54.69
30618;BME280;17384;51.214;9.202;2023-04-21T09:13:11;98477.59;;;15.61;54.90
30618;BME280;17384;51.214;9.202;2023-04-21T09:15:40;98488.72;;;14.94;56.63
30618;BME280;17384;51.214;9.202;2023-04-21T09:18:14;98477.00;;;14.77;57.96
30618;BME280;17384;51.214;9.202;2023-04-21T09:20:41;98486.63;;;14.46;59.52
30618;BME280;17384;51.214;9.202;2023-04-21T09:23:08;98482.31;;;14.67;58.42
30618;BME280;17384;51.214;9.202;2023-04-21T09:25:37;98484.78;;;14.51;58.57
30618;BME280;17384;51.214;9.202;2023-04-21T09:28:06;98472.78;;;14.36;59.35
30618;BME280;17384;51.214;9.202;2023-04-21T09:30:37;98476.97;;;14.10;59.37
30618;BME280;17384;51.214;9.202;2023-04-21T09:33:03;98483.69;;;14.19;57.97
30618;BME280;17384;51.214;9.202;2023-04-21T09:35:31;98466.38;;;14.42;58.38
30618;BME280;17384;51.214;9.202;2023-04-21T09:37:59;98455.28;;;14.87;58.04
30618;BME280;17384;51.214;9.202;2023-04-21T09:40:25;98455.53;;;15.02;56.52
30618;BME280;17384;51.214;9.202;2023-04-21T09:42:52;98451.31;;;15.16;55.48
30618;BME280;17384;51.214;9.202;2023-04-21T09:45:18;98463.84;;;15.12;55.63
30618;BME280;17384;51.214;9.202;2023-04-21T09:47:46;98447.34;;;14.85;55.01
30618;BME280;17384;51.214;9.202;2023-04-21T09:50:14;98450.09;;;15.07;56.55
30618;BME280;17384;51.214;9.202;2023-04-21T09:52:42;98442.53;;;15.14;54.86
30618;BME280;17384;51.214;9.202;2023-04-21T09:55:12;98443.88;;;15.77;53.55
30618;BME280;17384;51.214;9.202;2023-04-21T09:57:40;98461.25;;;15.66;54.13
30618;BME280;17384;51.214;9.202;2023-04-21T10:00:08;98458.25;;;15.95;51.39
30618;BME280;17384;51.214;9.202;2023-04-21T10:02:35;98450.38;;;16.30;50.93
30618;BME280;17384;51.214;9.202;2023-04-21T10:05:05;98446.31;;;16.65;52.33
30618;BME280;17384;51.214;9.202;2023-04-21T10:07:34;98448.09;;;16.22;52.37
30618;BME280;17384;51.214;9.202;2023-04-21T10:09:59;98434.25;;;16.66;51.93
30618;BME280;17384;51.214;9.202;2023-04-21T10:12:25;98432.69;;;16.80;49.39
30618;BME280;17384;51.214;9.202;2023-04-21T10:14:55;98436.16;;;16.33;51.15
30618;BME280;17384;51.214;9.202;2023-04-21T10:17:22;98448.41;;;16.95;52.21
30618;BME280;17384;51.214;9.202;2023-04-21T10:19:56;98434.78;;;17.82;51.25
30618;BME280;17384;51.214;9.202;2023-04-21T10:22:30;98438.28;;;16.95;49.91
30618;BME280;17384;51.214;9.202;2023-04-21T10:24:58;98441.75;;;17.38;50.42
30618;BME280;17384;51.214;9.202;2023-04-21T10:27:39;98439.47;;;17.97;49.78
30618;BME280;17384;51.214;9.202;2023-04-21T10:30:31;98446.19;;;17.49;47.29
30618;BME280;17384;51.214;9.202;2023-04-21T10:33:04;98427.00;;;17.49;48.64
30618;BME280;17384;51.214;9.202;2023-04-21T10:36:00;98437.03;;;17.23;50.44
30618;BME280;17384;51.214;9.202;2023-04-21T10:38:41;98431.66;;;17.58;47.72
30618;BME280;17384;51.214;9.202;2023-04-21T10:41:26;98431.81;;;18.60;46.62
30618;BME280;17384;51.214;9.202;2023-04-21T10:43:52;98427.91;;;19.02;46.27
30618;BME280;17384;51.214;9.202;2023-04-21T10:49:09;98430.91;;;17.68;47.21
30618;BME280;17384;51.214;9.202;2023-04-21T10:54:42;98408.16;;;17.05;49.01
30618;BME280;17384;51.214;9.202;2023-04-21T10:57:20;98407.78;;;17.54;48.76
30618;BME280;17384;51.214;9.202;2023-04-21T10:59:46;98404.06;;;17.96;48.22
30618;BME280;17384;51.214;9.202;2023-04-21T11:02:13;98404.59;;;17.92;47.54
30618;BME280;17384;51.214;9.202;2023-04-21T11:04:40;98407.91;;;18.10;45.91
30618;BME280;17384;51.214;9.202;2023-04-21T11:07:14;98403.50;;;18.39;45.73
30618;BME280;17384;51.214;9.202;2023-04-21T11:09:41;98387.59;;;18.31;46.71
30618;BME280;17384;51.214;9.202;2023-04-21T11:12:09;98406.28;;;18.29;46.80
30618;BME280;17384;51.214;9.202;2023-04-21T11:14:36;98399.38;;;17.86;48.15
30618;BME280;17384;51.214;9.202;2023-04-21T11:17:04;98389.22;;;18.47;46.15
30618;BME280;17384;51.214;9.202;2023-04-21T11:19:33;98394.16;;;18.50;47.90
30618;BME280;17384;51.214;9.202;2023-04-21T11:21:58;98396.09;;;18.14;48.22
30618;BME280;17384;51.214;9.202;2023-04-21T11:24:24;98403.44;;;17.63;48.00
30618;BME280;17384;51.214;9.202;2023-04-21T11:26:50;98388.16;;;18.03;49.55
30618;BME280;17384;51.214;9.202;2023-04-21T11:29:16;98395.25;;;17.83;48.42
30618;BME280;17384;51.214;9.202;2023-04-21T11:31:44;98391.69;;;17.68;47.35
30618;BME280;17384;51.214;9.202;2023-04-21T11:34:10;98381.41;;;17.38;48.21
30618;BME280;17384;51.214;9.202;2023-04-21T11:36:39;98395.19;;;17.63;48.28
30618;BME280;17384;51.214;9.202;2023-04-21T11:39:08;98385.75;;;17.18;48.87
30618;BME280;17384;51.214;9.202;2023-04-21T11:41:39;98372.22;;;17.69;46.62
30618;BME280;17384;51.214;9.202;2023-04-21T11:44:06;98371.53;;;17.32;47.90
30618;BME280;17384;51.214;9.202;2023-04-21T11:46:31;98365.09;;;17.73;48.75
30618;BME280;17384;51.214;9.202;2023-04-21T11:49:06;98368.22;;;17.19;49.01
30618;BME280;17384;51.214;9.202;2023-04-21T11:53:58;98381.38;;;17.17;48.41
30618;BME280;17384;51.214;9.202;2023-04-21T11:56:23;98366.09;;;17.42;49.96
30618;BME280;17384;51.214;9.202;2023-04-21T11:58:50;98361.50;;;17.73;49.55
30618;BME280;17384;51.214;9.202;2023-04-21T12:01:20;98373.03;;;17.80;48.36
30618;BME280;17384;51.214;9.202;2023-04-21T12:03:53;98375.50;;;18.12;48.47
30618;BME280;17384;51.214;9.202;2023-04-21T12:06:25;98360.16;;;17.75;48.23
30618;BME280;17384;51.214;9.202;2023-04-21T12:08:59;98373.31;;;17.01;49.48
30618;BME280;17384;51.214;9.202;2023-04-21T12:11:29;98368.66;;;16.96;51.68
30618;BME280;17384;51.214;9.202;2023-04-21T12:13:56;98347.28;;;16.98;52.03
30618;BME280;17384;51.214;9.202;2023-04-21T12:16:27;98357.19;;;17.09;51.81
30618;BME280;17384;51.214;9.202;2023-04-21T12:18:53;98367.47;;;17.49;49.83
30618;BME280;17384;51.214;9.202;2023-04-21T12:21:19;98366.44;;;17.66;49.94
30618;BME280;17384;51.214;9.202;2023-04-21T12:23:44;98358.41;;;17.54;48.46
30618;BME280;17384;51.214;9.202;2023-04-21T12:26:10;98370.75;;;17.51;48.60
30618;BME280;17384;51.214;9.202;2023-04-21T12:28:39;98355.97;;;17.63;51.85
30618;BME280;17384;51.214;9.202;2023-04-21T12:31:05;98352.47;;;18.28;49.36
30618;BME280;17384;51.214;9.202;2023-04-21T12:33:30;98354.66;;;18.26;49.87
30618;BME280;17384;51.214;9.202;2023-04-21T12:35:56;98355.16;;;17.62;47.06
30618;BME280;17384;51.214;9.202;2023-04-21T12:38:21;98346.09;;;17.62;47.70
30618;BME280;17384;51.214;9.202;2023-04-21T12:40:47;98350.78;;;17.66;51.20
30618;BME280;17384;51.214;9.202;2023-04-21T12:43:13;98352.31;;;17.26;49.12
30618;BME280;17384;51.214;9.202;2023-04-21T12:45:38;98340.75;;;17.09;49.42
30618;BME280;17384;51.214;9.202;2023-04-21T12:48:04;98343.50;;;17.09;50.38
30618;BME280;17384;51.214;9.202;2023-04-21T12:50:33;98330.84;;;17.03;49.37
30618;BME280;17384;51.214;9.202;2023-04-21T12:52:58;98338.22;;;16.87;50.19
30618;BME280;17384;51.214;9.202;2023-04-21T12:55:24;98330.78;;;16.83;51.53
30618;BME280;17384;51.214;9.202;2023-04-21T12:57:49;98341.81;;;16.93;49.12
30618;BME280;17384;51.214;9.202;2023-04-21T13:00:18;98350.69;;;17.36;50.03
30618;BME280;17384;51.214;9.202;2023-04-21T13:02:43;98339.28;;;17.69;49.34
30618;BME280;17384;51.214;9.202;2023-04-21T13:05:09;98332.69;;;17.80;50.29
30618;BME280;17384;51.214;9.202;2023-04-21T13:07:36;98344.25;;;18.03;48.05
30618;BME280;17384;51.214;9.202;2023-04-21T13:10:03;98331.59;;;18.12;48.05
30618;BME280;17384;51.214;9.202;2023-04-21T13:12:30;98312.38;;;18.12;48.12